CW1344 Weather Reports


Display with metric or nautical units.
time (UTC)temp
F
wind
direction
speed
MPH
gust
MPH
rain 1hr
in
rain 24hr
in
rain mn
in
humidity
%
barometer
mb
20190325012727 60 92 0.0 0.0 0.00 0.00 0.00 80 1023.2
20190325011726 61 92 0.0 0.0 0.00 0.00 0.00 79 1023.1
20190325010720 62 92 0.0 0.0 0.00 0.00 0.00 77 1023.0
20190325005719 63 92 0.0 0.0 0.00 0.00 0.00 75 1022.9
20190325004718 64 92 0.0 0.0 0.00 0.00 0.00 74 1022.9
20190325003717 64 92 0.0 0.0 0.00 0.00 0.00 73 1022.9
20190325002716 65 111 0.0 0.0 0.00 0.00 0.00 71 1022.9
20190325001715 66 111 0.0 0.0 0.00 0.00 0.00 69 1022.9
20190325000714 68 111 0.0 0.0 0.00 0.00 0.00 65 1023.1
20190324235713 69 110 0.0 0.0 0.00 0.00 0.00 62 1023.0
20190324234712 70 111 0.0 0.0 0.00 0.00 0.00 60 1023.0
20190324233710 71 111 0.0 0.0 0.00 0.00 0.00 57 1023.0
20190324232710 72 150 0.0 0.0 0.00 0.00 0.00 55 1022.9
20190324231709 74 119 0.0 0.0 0.00 0.00 0.00 53 1022.9
20190324230705 75 121 1.0 0.0 0.00 0.00 0.00 51 1022.9
20190324225704 76 78 0.0 0.0 0.00 0.00 0.00 50 1023.0
20190324224703 76 111 1.0 0.0 0.00 0.00 0.00 50 1023.0
20190324223702 77 143 5.0 0.0 0.00 0.00 0.00 48 1023.0
20190324222701 78 105 2.0 0.0 0.00 0.00 0.00 45 1022.9
20190324221700 78 200 0.0 0.0 0.00 0.00 0.00 46 1023.0
20190324220655 79 83 0.0 0.0 0.00 0.00 0.00 45 1023.1
20190324215654 78 163 0.0 0.0 0.00 0.00 0.00 46 1023.0
20190324214653 77 157 1.0 0.0 0.00 0.00 0.00 48 1023.3
20190324213652 77 116 2.0 0.0 0.00 0.00 0.00 47 1023.3
20190324212651 78 198 1.0 0.0 0.00 0.00 0.00 47 1023.3
20190324211650 77 88 1.0 0.0 0.00 0.00 0.00 48 1023.3
20190324210644 77 146 1.0 0.0 0.00 0.00 0.00 48 1023.4
20190324205643 78 252 2.0 0.0 0.00 0.00 0.00 45 1023.6
20190324204642 78 200 3.0 0.0 0.00 0.00 0.00 44 1023.6
20190324203640 79 102 1.0 0.0 0.00 0.00 0.00 44 1023.5
20190324202639 79 94 2.0 0.0 0.00 0.00 0.00 43 1023.6
20190324201638 79 344 2.0 0.0 0.00 0.00 0.00 44 1023.9
20190324200637 79 192 0.0 0.0 0.00 0.00 0.00 44 1024.0
20190324195636 79 96 2.0 0.0 0.00 0.00 0.00 45 1024.0
20190324194635 79 93 2.0 0.0 0.00 0.00 0.00 42 1024.1
20190324193634 80 128 4.0 0.0 0.00 0.00 0.00 43 1024.2
20190324192633 80 163 1.0 0.0 0.00 0.00 0.00 41 1024.2
20190324191632 80 152 2.0 0.0 0.00 0.00 0.00 42 1024.3
20190324190629 80 57 10.0 0.0 0.00 0.00 0.00 43 1024.4
20190324184627 80 183 4.0 0.0 0.00 0.00 0.00 43 1024.6
20190324183627 80 19 1.0 0.0 0.00 0.00 0.00 43 1024.7
20190324182625 81 61 2.0 0.0 0.00 0.00 0.00 42 1024.9
20190324181624 80 97 5.0 0.0 0.00 0.00 0.00 42 1025.1
20190324180623 79 202 1.0 0.0 0.00 0.00 0.00 42 1025.3
20190324175622 79 13 2.0 0.0 0.00 0.00 0.00 42 1025.5
20190324174621 79 223 1.0 0.0 0.00 0.00 0.00 44 1025.5
20190324173620 79 36 1.0 0.0 0.00 0.00 0.00 44 1025.6
20190324172619 79 69 6.0 0.0 0.00 0.00 0.00 43 1025.8
20190324171618 80 204 2.0 0.0 0.00 0.00 0.00 42 1026.0
20190324170617 78 27 3.0 0.0 0.00 0.00 0.00 43 1026.1
20190324165616 79 57 3.0 0.0 0.00 0.00 0.00 44 1026.3
20190324164615 79 188 0.0 0.0 0.00 0.00 0.00 45 1026.3
20190324163614 79 146 2.0 0.0 0.00 0.00 0.00 45 1026.4
20190324162613 78 51 2.0 0.0 0.00 0.00 0.00 45 1026.5
20190324161612 78 150 1.0 0.0 0.00 0.00 0.00 48 1026.6
20190324160609 78 48 2.0 0.0 0.00 0.00 0.00 48 1026.7
20190324155608 77 162 1.0 0.0 0.00 0.00 0.00 48 1026.7
20190324154607 76 137 4.0 0.0 0.00 0.00 0.00 51 1026.6
20190324153606 76 86 3.0 0.0 0.00 0.00 0.00 49 1026.6
20190324152605 75 133 3.0 0.0 0.00 0.00 0.00 49 1026.5
20190324151604 75 73 5.0 0.0 0.00 0.00 0.00 50 1026.5
20190324150603 74 152 4.0 0.0 0.00 0.00 0.00 48 1026.4
20190324145602 73 42 2.0 0.0 0.00 0.00 0.00 50 1026.6
20190324144601 72 169 2.0 0.0 0.00 0.00 0.00 51 1026.6
20190324143600 71 80 0.0 0.0 0.00 0.00 0.00 52 1026.7
20190324142559 70 37 1.0 0.0 0.00 0.00 0.00 54 1026.8
20190324141559 69 139 2.0 0.0 0.00 0.00 0.00 56 1026.8
20190324140557 66 92 0.0 0.0 0.00 0.00 0.00 61 1026.6
20190324135556 65 155 0.0 0.0 0.00 0.00 0.00 64 1026.6
20190324134555 63 73 0.0 0.0 0.00 0.00 0.00 68 1026.6
20190324133554 59 161 0.0 0.0 0.00 0.00 0.00 76 1026.5
20190324132553 56 152 0.0 0.0 0.00 0.00 0.00 82 1026.4
20190324131552 54 158 0.0 0.0 0.00 0.00 0.00 87 1026.3
20190324130546 50 158 0.0 0.0 0.00 0.00 0.00 89 1026.4
20190324125545 49 158 0.0 0.0 0.00 0.00 0.00 91 1026.3
20190324124544 47 158 0.0 0.0 0.00 0.00 0.00 93 1026.3
20190324123543 46 158 0.0 0.0 0.00 0.00 0.00 94 1026.2
20190324122542 45 158 0.0 0.0 0.00 0.00 0.00 95 1026.2
20190324121541 44 158 0.0 0.0 0.00 0.00 0.00 95 1026.3
20190324120540 44 158 0.0 0.0 0.00 0.00 0.00 95 1026.2
20190324115539 44 158 0.0 0.0 0.00 0.00 0.00 95 1026.1
20190324114538 44 158 0.0 0.0 0.00 0.00 0.00 95 1026.2
20190324113537 44 158 0.0 0.0 0.00 0.00 0.00 95 1026.1
20190324112534 44 158 0.0 0.0 0.00 0.00 0.00 95 1026.0
20190324111534 44 158 0.0 0.0 0.00 0.00 0.00 95 1025.7
20190324110532 44 158 0.0 0.0 0.00 0.00 0.00 94 1025.6
20190324105531 44 158 0.0 0.0 0.00 0.00 0.00 94 1025.5
20190324104530 44 158 0.0 0.0 0.00 0.00 0.00 94 1025.3
20190324103529 44 158 0.0 0.0 0.00 0.00 0.00 94 1025.2
20190324102528 44 158 0.0 0.0 0.00 0.00 0.00 93 1025.1
20190324101454 45 158 0.0 0.0 0.00 0.00 0.00 94 1025.1
20190324100451 45 158 0.0 0.0 0.00 0.00 0.00 94 1025.0
20190324095450 45 158 0.0 0.0 0.00 0.00 0.00 94 1024.9
20190324094449 46 158 0.0 0.0 0.00 0.00 0.00 94 1024.9
20190324093448 46 158 0.0 0.0 0.00 0.00 0.00 94 1025.0
20190324092447 45 158 0.0 0.0 0.00 0.00 0.00 94 1025.1
20190324091446 45 158 0.0 0.0 0.00 0.00 0.00 93 1025.3
20190324090444 46 158 0.0 0.0 0.00 0.00 0.00 93 1025.3
20190324085443 46 158 0.0 0.0 0.00 0.00 0.00 93 1025.4
20190324084442 46 158 0.0 0.0 0.00 0.00 0.00 93 1025.3
20190324083441 46 158 0.0 0.0 0.00 0.00 0.00 93 1025.3
20190324082440 46 158 0.0 0.0 0.00 0.00 0.00 93 1025.2
20190324081439 46 158 0.0 0.0 0.00 0.00 0.00 93 1025.1
20190324080435 46 158 0.0 0.0 0.00 0.00 0.00 92 1025.2
20190324075434 46 158 0.0 0.0 0.00 0.00 0.00 92 1025.2
20190324074433 46 158 0.0 0.0 0.00 0.00 0.00 92 1025.2
20190324073432 47 158 0.0 0.0 0.00 0.00 0.00 92 1025.2
20190324072431 47 158 0.0 0.0 0.00 0.00 0.00 90 1025.2
20190324071430 47 158 0.0 0.0 0.00 0.00 0.00 90 1025.2
20190324070427 48 158 0.0 0.0 0.00 0.00 0.00 90 1025.3
20190324065426 48 158 0.0 0.0 0.00 0.00 0.00 90 1025.4
20190324064425 48 158 0.0 0.0 0.00 0.00 0.00 90 1025.5
20190324063424 48 159 0.0 0.0 0.00 0.00 0.00 88 1025.5
20190324062423 49 159 0.0 0.0 0.00 0.00 0.00 88 1025.6
20190324061422 49 105 0.0 0.0 0.00 0.00 0.00 88 1025.8
20190324060416 49 84 0.0 0.0 0.00 0.00 0.00 89 1025.7
20190324055415 49 84 0.0 0.0 0.00 0.00 0.00 89 1025.6
20190324054414 48 194 0.0 0.0 0.00 0.00 0.00 90 1025.4
20190324053413 48 193 0.0 0.0 0.00 0.00 0.00 88 1025.3
20190324052412 48 193 0.0 0.0 0.00 0.00 0.00 88 1025.4
20190324051411 48 194 0.0 0.0 0.00 0.00 0.00 87 1025.4
20190324050410 48 194 0.0 0.0 0.00 0.00 0.00 87 1025.5
20190324045409 49 193 0.0 0.0 0.00 0.00 0.00 84 1025.5
20190324044408 50 193 0.0 0.0 0.00 0.00 0.00 84 1025.7
20190324043407 50 193 0.0 0.0 0.00 0.00 0.00 83 1025.7
20190324042406 50 193 0.0 0.0 0.00 0.00 0.00 82 1025.7
20190324041405 51 193 0.0 0.0 0.00 0.00 0.00 82 1025.8
20190324040359 51 193 0.0 0.0 0.00 0.00 0.00 82 1025.8
20190324035357 51 193 0.0 0.0 0.00 0.00 0.00 82 1025.7
20190324034356 51 193 0.0 0.0 0.00 0.00 0.00 80 1025.7
20190324033356 51 194 0.0 0.0 0.00 0.00 0.00 80 1025.7
20190324032354 52 193 0.0 0.0 0.00 0.00 0.00 78 1025.6
20190324031353 52 193 0.0 0.0 0.00 0.00 0.00 78 1025.6
20190324030349 52 194 0.0 0.0 0.00 0.00 0.00 79 1025.6
20190324025348 52 193 0.0 0.0 0.00 0.00 0.00 76 1025.6
20190324024347 53 193 0.0 0.0 0.00 0.00 0.00 75 1025.5
20190324023346 54 194 0.0 0.0 0.00 0.00 0.00 77 1025.5
20190324022345 54 194 0.0 0.0 0.00 0.00 0.00 74 1025.5
20190324021344 54 193 0.0 0.0 0.00 0.00 0.00 71 1025.4
20190324020338 54 193 0.0 0.0 0.00 0.00 0.00 71 1025.4
20190324015337 55 193 0.0 0.0 0.00 0.00 0.00 69 1025.4
20190324014337 56 193 0.0 0.0 0.00 0.00 0.00 67 1025.1
20190324013336 57 193 0.0 0.0 0.00 0.00 0.00 63 1024.9